Ferrigno Boy — WCY2558 — position and weather

sailwx.info

Track history (hours):
 
Tides and Currents Weather Stations Pressure Air Temp Water Temp Dewpoint Dewpoint Depression Visibility Wind Speed Wind Dir Waves Ship Positions

Ferrigno Boy

Owner: FERRIGNO, CIRO, SAN PEDRO, CA. More information available from US FCC via Universal Licensing System and Coast Guard Vessel Documentation Center.

Last reported at 2018-Jun-21 19:14 UTC. Time now 2018-Jun-24 01:43 UTC.
Position N 33°44' W 118°16'.

Type: Fishing. MMSI: 367578550.

Date/timePositionNaut miles runAvg speedWind from/ knotsBaromVisibWave heightAir tempDewpointWater temp
2018-Jun-21 19:14N 33°44' W 118°16'2 8.1
2018-Jun-21 18:59N 33°42' W 118°15'58 4.8
2018-Jun-21 06:59N 34°08' W 119°18'0 0.2
2018-Jun-21 06:24N 34°08' W 119°17'0 0.1
2018-Jun-21 05:48N 34°08' W 119°18'0 0.2
2018-Jun-21 05:30N 34°08' W 119°17'0 0.0
2018-Jun-21 04:54N 34°08' W 119°17'0 0.0
2018-Jun-21 04:30N 34°08' W 119°17'0 0.0
2018-Jun-21 04:00N 34°08' W 119°17'0 0.0
2018-Jun-21 03:24N 34°08' W 119°17'0 0.0
2018-Jun-21 02:57N 34°08' W 119°17'11 0.6
2018-Jun-20 08:40N 34°00' W 119°26'1 8.1
2018-Jun-20 08:30N 34°01' W 119°27'4 8.0
2018-Jun-20 07:59N 34°03' W 119°32'4 7.6
2018-Jun-20 07:25N 34°03' W 119°37'3 7.1
2018-Jun-20 07:00N 34°01' W 119°40'3 6.3
2018-Jun-20 06:30N 34°03' W 119°43'4 7.2
2018-Jun-20 06:00N 34°04' W 119°48'1 1.2
2018-Jun-20 05:28N 34°03' W 119°48'4 8.0
2018-Jun-20 05:00N 34°05' W 119°53'4 7.6
2018-Jun-20 04:28N 34°04' W 119°57'4 8.0
2018-Jun-20 04:00N 34°01' W 120°00'1 0.8
2018-Jun-20 02:53N 34°00' W 120°01'0 0.0
2018-Jun-20 02:26N 34°00' W 120°01'0 0.0
2018-Jun-20 01:56N 34°00' W 120°01'0 0.0
2018-Jun-20 01:20N 34°00' W 120°01'0 0.0
2018-Jun-20 00:20N 34°00' W 120°01'0 0.1
2018-Jun-19 23:44N 34°00' W 120°01'0 0.0
2018-Jun-19 23:29N 34°00' W 120°01'0 0.0
2018-Jun-19 22:44N 34°00' W 120°01'0 0.0
2018-Jun-19 22:26N 34°00' W 120°01'0 0.0
2018-Jun-19 21:53N 34°00' W 120°01'0 0.0
2018-Jun-19 21:29N 34°00' W 120°01'0 0.0
2018-Jun-19 20:56N 34°00' W 120°01'0 0.0
2018-Jun-19 20:20N 34°00' W 120°01'0 0.0
2018-Jun-19 19:59N 34°00' W 120°01'0 0.0
2018-Jun-19 19:29N 34°00' W 120°01'0 0.0
2018-Jun-19 18:38N 34°00' W 120°01'0 0.0
2018-Jun-19 18:26N 34°00' W 120°01'0 0.0
2018-Jun-19 17:59N 34°00' W 120°01'0 0.0
2018-Jun-19 17:23N 34°00' W 120°01'0 0.0
2018-Jun-19 16:47N 34°00' W 120°01'0 0.0
2018-Jun-19 16:09N 34°00' W 120°01'3 8.7
2018-Jun-19 15:47N 34°03' W 120°02'3 9.1
2018-Jun-19 15:28N 34°05' W 120°05'4 8.8
2018-Jun-19 14:59N 34°08' W 120°09'4 8.9
2018-Jun-19 14:29N 34°11' W 120°13'4 9.0
2018-Jun-19 14:00N 34°14' W 120°17'5 8.8
2018-Jun-19 13:29N 34°17' W 120°21'  
Track history (hours):
 
Tides and Currents Weather Stations Pressure Air Temp Water Temp Dewpoint Dewpoint Depression Visibility Wind Speed Wind Dir Waves Ship Positions

Ferrigno Boy

Owner: FERRIGNO, CIRO, SAN PEDRO, CA. More information available from US FCC via Universal Licensing System and Coast Guard Vessel Documentation Center.

Last reported at 2018-Jun-21 19:14 UTC. Time now 2018-Jun-24 01:43 UTC.
Position N 33°44' W 118°16'.

Type: Fishing. MMSI: 367578550.

Date/timePositionNaut miles runAvg speedWind from/ knotsBaromVisibWave heightAir tempDewpointWater temp
2018-Jun-21 19:14N 33°44' W 118°16'2 8.1
2018-Jun-21 18:59N 33°42' W 118°15'58 4.8
2018-Jun-21 06:59N 34°08' W 119°18'0 0.2
2018-Jun-21 06:24N 34°08' W 119°17'0 0.1
2018-Jun-21 05:48N 34°08' W 119°18'0 0.2
2018-Jun-21 05:30N 34°08' W 119°17'0 0.0
2018-Jun-21 04:54N 34°08' W 119°17'0 0.0
2018-Jun-21 04:30N 34°08' W 119°17'0 0.0
2018-Jun-21 04:00N 34°08' W 119°17'0 0.0
2018-Jun-21 03:24N 34°08' W 119°17'0 0.0
2018-Jun-21 02:57N 34°08' W 119°17'11 0.6
2018-Jun-20 08:40N 34°00' W 119°26'1 8.1
2018-Jun-20 08:30N 34°01' W 119°27'4 8.0
2018-Jun-20 07:59N 34°03' W 119°32'4 7.6
2018-Jun-20 07:25N 34°03' W 119°37'3 7.1
2018-Jun-20 07:00N 34°01' W 119°40'3 6.3
2018-Jun-20 06:30N 34°03' W 119°43'4 7.2
2018-Jun-20 06:00N 34°04' W 119°48'1 1.2
2018-Jun-20 05:28N 34°03' W 119°48'4 8.0
2018-Jun-20 05:00N 34°05' W 119°53'4 7.6
2018-Jun-20 04:28N 34°04' W 119°57'4 8.0
2018-Jun-20 04:00N 34°01' W 120°00'1 0.8
2018-Jun-20 02:53N 34°00' W 120°01'0 0.0
2018-Jun-20 02:26N 34°00' W 120°01'0 0.0
2018-Jun-20 01:56N 34°00' W 120°01'0 0.0
2018-Jun-20 01:20N 34°00' W 120°01'0 0.0
2018-Jun-20 00:20N 34°00' W 120°01'0 0.1
2018-Jun-19 23:44N 34°00' W 120°01'0 0.0
2018-Jun-19 23:29N 34°00' W 120°01'0 0.0
2018-Jun-19 22:44N 34°00' W 120°01'0 0.0
2018-Jun-19 22:26N 34°00' W 120°01'0 0.0
2018-Jun-19 21:53N 34°00' W 120°01'0 0.0
2018-Jun-19 21:29N 34°00' W 120°01'0 0.0
2018-Jun-19 20:56N 34°00' W 120°01'0 0.0
2018-Jun-19 20:20N 34°00' W 120°01'0 0.0
2018-Jun-19 19:59N 34°00' W 120°01'0 0.0
2018-Jun-19 19:29N 34°00' W 120°01'0 0.0
2018-Jun-19 18:38N 34°00' W 120°01'0 0.0
2018-Jun-19 18:26N 34°00' W 120°01'0 0.0
2018-Jun-19 17:59N 34°00' W 120°01'0 0.0
2018-Jun-19 17:23N 34°00' W 120°01'0 0.0
2018-Jun-19 16:47N 34°00' W 120°01'0 0.0
2018-Jun-19 16:09N 34°00' W 120°01'3 8.7
2018-Jun-19 15:47N 34°03' W 120°02'3 9.1
2018-Jun-19 15:28N 34°05' W 120°05'4 8.8
2018-Jun-19 14:59N 34°08' W 120°09'4 8.9
2018-Jun-19 14:29N 34°11' W 120°13'4 9.0
2018-Jun-19 14:00N 34°14' W 120°17'5 8.8
2018-Jun-19 13:29N 34°17' W 120°21'  

Dump ship's entire track history